Time;durP1;ratioP1;P1;durP2;ratioP2;P2;SDS_P1;SDS_P2;PMS_P1;PMS_P2;Temp;Humidity;BMP_temperature;BMP_pressure;BME280_temperature;BME280_humidity;BME280_pressure;Samples;Min_cycle;Max_cycle;Signal;HPM_P1;HPM_P2
2022/04/07 00:00:31;;;;;;;3.67;3.47;;;;;;;7.17;100.00;95565.13;4986642;28;21132;-54
2022/04/07 00:02:59;;;;;;;3.33;3.13;;;;;;;7.12;100.00;95567.56;5020729;28;20682;-53
2022/04/07 00:05:29;;;;;;;4.30;3.90;;;;;;;7.18;100.00;95564.94;4991425;28;20716;-52
2022/04/07 00:07:57;;;;;;;4.03;3.77;;;;;;;7.24;100.00;95555.44;5023760;28;20210;-55
2022/04/07 00:10:25;;;;;;;3.53;3.27;;;;;;;7.42;100.00;95562.72;5023780;28;20406;-55
2022/04/07 00:12:53;;;;;;;3.23;2.97;;;;;;;7.41;100.00;95562.91;5002005;28;20232;-52
2022/04/07 00:15:23;;;;;;;3.27;2.97;;;;;;;7.46;100.00;95558.66;4995536;28;20219;-57
2022/04/07 00:17:51;;;;;;;3.63;3.33;;;;;;;7.48;100.00;95559.28;5000092;28;20525;-56
2022/04/07 00:20:20;;;;;;;3.30;3.10;;;;;;;7.42;100.00;95554.00;5014236;28;20239;-54
2022/04/07 00:22:50;;;;;;;3.03;2.67;;;;;;;7.37;100.00;95559.88;4988187;28;20242;-55
2022/04/07 00:25:19;;;;;;;4.37;2.77;;;;;;;7.29;100.00;95555.63;5022273;28;20562;-56
2022/04/07 00:27:48;;;;;;;3.33;2.93;;;;;;;7.27;100.00;95548.94;4999649;28;20422;-56
2022/04/07 00:30:19;;;;;;;3.07;2.87;;;;;;;7.29;100.00;95547.72;5028816;28;20303;-55
2022/04/07 00:32:49;;;;;;;3.27;2.93;;;;;;;7.11;100.00;95545.69;4986377;28;21107;-57
2022/04/07 00:35:18;;;;;;;2.90;2.73;;;;;;;7.05;100.00;95541.25;5005503;28;20219;-55
2022/04/07 00:37:46;;;;;;;3.30;3.10;;;;;;;6.97;100.00;95539.63;4990963;28;20365;-56
2022/04/07 00:40:15;;;;;;;2.93;2.73;;;;;;;7.05;100.00;95535.97;5026074;28;20294;-58
2022/04/07 00:42:47;;;;;;;3.20;3.00;;;;;;;7.07;100.00;95536.59;4999885;28;20337;-56
2022/04/07 00:45:16;;;;;;;3.07;2.87;;;;;;;6.97;100.00;95531.72;5023793;28;20222;-53
2022/04/07 00:47:45;;;;;;;3.73;2.90;;;;;;;6.90;100.00;95528.28;4978213;28;20449;-55
2022/04/07 00:50:14;;;;;;;3.27;3.07;;;;;;;6.84;100.00;95521.19;5026498;28;20207;-53
2022/04/07 00:52:45;;;;;;;3.20;2.90;;;;;;;7.02;100.00;95531.91;4989837;28;20641;-57
2022/04/07 00:55:15;;;;;;;3.57;3.27;;;;;;;6.95;100.00;95523.22;5022072;28;20204;-57
2022/04/07 00:57:45;;;;;;;3.20;3.00;;;;;;;6.94;100.00;95522.38;4997003;28;21515;-58
2022/04/07 01:00:14;;;;;;;3.00;2.80;;;;;;;6.99;100.00;95513.06;5019540;28;20674;-57
2022/04/07 01:02:42;;;;;;;3.10;2.90;;;;;;;7.00;100.00;95518.16;4981328;28;20303;-56
2022/04/07 01:05:11;;;;;;;3.13;2.93;;;;;;;7.03;100.00;95514.31;5020682;28;20215;-55
2022/04/07 01:07:39;;;;;;;3.03;2.83;;;;;;;7.15;100.00;95522.38;4991726;28;20531;-57
2022/04/07 01:10:09;;;;;;;3.47;3.20;;;;;;;7.09;100.00;95518.75;5022203;28;20214;-56
2022/04/07 01:12:39;;;;;;;2.83;2.73;;;;;;;7.04;100.00;95515.94;5023135;28;20227;-55
2022/04/07 01:15:08;;;;;;;2.93;2.70;;;;;;;7.06;100.00;95506.00;5004012;28;20747;-58
2022/04/07 01:17:38;;;;;;;3.40;2.93;;;;;;;7.09;100.00;95511.66;4978247;28;20218;-53
2022/04/07 01:20:08;;;;;;;2.70;2.60;;;;;;;7.14;100.00;95505.78;5017577;28;20623;-53
2022/04/07 01:22:37;;;;;;;3.50;3.30;;;;;;;7.20;100.00;95502.34;5004096;28;20884;-58
2022/04/07 01:25:09;;;;;;;3.10;2.77;;;;;;;7.24;100.00;95500.91;5007996;28;20227;-56
2022/04/07 01:27:37;;;;;;;2.90;2.70;;;;;;;7.26;100.00;95492.81;5021301;28;20295;-55
2022/04/07 01:30:07;;;;;;;3.00;2.80;;;;;;;7.27;100.00;95490.97;5002608;28;20208;-58
2022/04/07 01:32:38;;;;;;;4.70;3.10;;;;;;;7.26;100.00;95490.19;4981813;28;20357;-57
2022/04/07 01:35:07;;;;;;;2.97;2.77;;;;;;;7.22;100.00;95486.34;5023339;28;20289;-59
2022/04/07 01:37:36;;;;;;;3.83;2.70;;;;;;;7.32;100.00;95480.63;5003962;28;20599;-57
2022/04/07 01:40:06;;;;;;;2.87;2.67;;;;;;;7.21;100.00;95474.97;5006466;28;20203;-60
2022/04/07 01:46:17;;;;;;;3.17;2.97;;;;;;;7.15;100.00;95480.25;4987646;28;20226;-54
2022/04/07 01:48:45;;;;;;;2.57;2.47;;;;;;;7.13;100.00;95482.28;4977092;28;20779;-57
2022/04/07 01:51:14;;;;;;;3.10;3.00;;;;;;;7.12;100.00;95478.84;5015849;28;20493;-54
2022/04/07 01:53:42;;;;;;;2.80;2.70;;;;;;;7.12;100.00;95472.75;5003151;28;20203;-58
2022/04/07 01:56:11;;;;;;;2.90;2.70;;;;;;;7.19;100.00;95477.00;4999225;28;20233;-56
2022/04/07 01:58:39;;;;;;;2.87;2.70;;;;;;;7.15;100.00;95472.34;5022202;28;20771;-56
2022/04/07 02:01:07;;;;;;;2.60;2.50;;;;;;;7.18;100.00;95479.84;4997165;28;20227;-55
2022/04/07 02:03:38;;;;;;;3.13;2.93;;;;;;;7.13;100.00;95479.63;4980983;28;20230;-59
2022/04/07 02:06:14;;;;;;;2.70;2.53;;;;;;;7.16;100.00;95473.97;4993759;28;20322;-57
2022/04/07 02:08:42;;;;;;;2.80;2.70;;;;;;;7.21;100.00;95463.66;5005234;28;20217;-57
2022/04/07 02:11:11;;;;;;;3.47;2.53;;;;;;;7.27;100.00;95467.25;4999999;28;20228;-59
2022/04/07 02:13:40;;;;;;;2.80;2.33;;;;;;;7.29;100.00;95468.69;5024604;28;20298;-50
2022/04/07 02:16:09;;;;;;;3.17;2.77;;;;;;;7.24;100.00;95468.50;4989426;28;20527;-58
2022/04/07 02:18:40;;;;;;;2.53;2.43;;;;;;;7.29;100.00;95465.22;5019840;28;20205;-55
2022/04/07 02:21:09;;;;;;;2.73;2.53;;;;;;;7.37;100.00;95462.38;4968271;28;20897;-60
2022/04/07 02:23:42;;;;;;;2.37;2.27;;;;;;;7.39;100.00;95465.66;4992449;28;20844;-60
2022/04/07 02:26:12;;;;;;;2.27;2.17;;;;;;;7.47;100.00;95468.06;4999383;28;20314;-60
2022/04/07 02:28:41;;;;;;;2.47;2.37;;;;;;;7.62;100.00;95477.53;5025123;28;20580;-58
2022/04/07 02:31:10;;;;;;;2.17;2.07;;;;;;;7.59;100.00;95468.22;4998721;28;20560;-60
2022/04/07 02:33:40;;;;;;;2.57;2.30;;;;;;;7.66;100.00;95474.28;4991446;28;20717;-58
2022/04/07 02:36:09;;;;;;;2.50;2.40;;;;;;;7.58;100.00;95465.78;4973749;28;20623;-59
2022/04/07 02:38:38;;;;;;;2.80;2.60;;;;;;;7.54;100.00;95449.56;5029497;28;20309;-56
2022/04/07 02:41:06;;;;;;;2.20;2.10;;;;;;;7.60;100.00;95458.47;4998592;28;20231;-56
2022/04/07 02:43:34;;;;;;;2.50;2.40;;;;;;;7.64;100.00;95457.03;5004547;28;20753;-57
2022/04/07 02:46:03;;;;;;;2.57;2.43;;;;;;;7.55;100.00;95458.28;5024192;28;20214;-56
2022/04/07 02:48:32;;;;;;;2.60;2.40;;;;;;;7.57;100.00;95451.78;5000368;28;20242;-57
2022/04/07 02:51:02;;;;;;;2.50;2.40;;;;;;;7.50;100.00;95454.47;4980025;28;20212;-58
2022/04/07 02:53:30;;;;;;;2.30;2.20;;;;;;;7.48;100.00;95453.03;5019593;28;20623;-61
2022/04/07 02:55:58;;;;;;;1.90;1.80;;;;;;;7.34;100.00;95453.06;4989672;28;20786;-56
2022/04/07 02:58:27;;;;;;;1.87;1.77;;;;;;;7.42;100.00;95456.50;4999517;28;20203;-58
2022/04/07 03:00:55;;;;;;;1.90;1.80;;;;;;;7.25;100.00;95451.69;5024808;28;20226;-57
2022/04/07 03:03:23;;;;;;;2.00;1.90;;;;;;;7.17;100.00;95444.78;4996316;28;20288;-60
2022/04/07 03:05:51;;;;;;;2.00;1.90;;;;;;;7.01;100.00;95447.84;5005619;28;20799;-59
2022/04/07 03:08:21;;;;;;;1.47;1.47;;;;;;;6.84;100.00;95461.44;4998624;28;20798;-56
2022/04/07 03:10:49;;;;;;;2.40;2.30;;;;;;;6.68;100.00;95446.06;5004017;28;20203;-57
2022/04/07 03:13:18;;;;;;;1.70;1.60;;;;;;;6.71;100.00;95449.06;4992750;28;20335;-60
2022/04/07 03:15:46;;;;;;;1.40;1.40;;;;;;;6.86;100.00;95433.06;5000329;28;20211;-57
2022/04/07 03:18:14;;;;;;;1.57;1.50;;;;;;;6.97;100.00;95462.44;5026020;28;20207;-58
2022/04/07 03:20:42;;;;;;;1.63;1.53;;;;;;;7.10;100.00;95449.28;4994335;28;20238;-57
2022/04/07 03:23:12;;;;;;;1.97;1.87;;;;;;;7.20;100.00;95457.56;4980058;28;20425;-59
2022/04/07 03:25:41;;;;;;;1.67;1.57;;;;;;;7.31;100.00;95458.75;5020319;28;20338;-59
2022/04/07 03:28:09;;;;;;;1.83;1.73;;;;;;;7.27;100.00;95462.00;5015411;28;20880;-59
2022/04/07 03:30:37;;;;;;;1.67;1.67;;;;;;;7.05;100.00;95452.50;5004735;28;20214;-56
2022/04/07 03:33:07;;;;;;;1.73;1.57;;;;;;;6.88;100.00;95454.75;5023320;28;20635;-56
2022/04/07 03:35:36;;;;;;;1.77;1.67;;;;;;;6.67;100.00;95458.38;5000641;28;20208;-57
2022/04/07 03:38:04;;;;;;;1.50;1.50;;;;;;;6.62;100.00;95452.91;4978083;28;20510;-58
2022/04/07 03:40:34;;;;;;;1.50;1.40;;;;;;;6.49;100.00;95453.72;5025901;28;20204;-54
2022/04/07 03:43:04;;;;;;;1.60;1.50;;;;;;;6.52;100.00;95455.94;5007316;28;20224;-60
2022/04/07 03:45:32;;;;;;;1.40;1.40;;;;;;;6.57;100.00;95450.88;5024587;28;20251;-56
2022/04/07 03:48:01;;;;;;;1.37;1.37;;;;;;;6.44;100.00;95443.81;5003932;28;20565;-60
2022/04/07 03:50:29;;;;;;;1.20;1.20;;;;;;;6.33;100.00;95441.75;5000510;28;20253;-61
2022/04/07 03:52:57;;;;;;;1.57;1.47;;;;;;;6.17;100.00;95424.53;4970220;28;20440;-62
2022/04/07 03:55:25;;;;;;;1.40;1.40;;;;;;;6.20;100.00;95432.84;5029129;28;20203;-61
2022/04/07 03:57:53;;;;;;;2.90;1.83;;;;;;;6.26;100.00;95430.41;5000360;28;20636;-56
2022/04/07 04:00:23;;;;;;;2.23;2.10;;;;;;;6.30;100.00;95427.19;5025344;28;20211;-60
2022/04/07 04:02:51;;;;;;;4.87;4.27;;;;;;;6.26;100.00;95423.34;4997882;28;20342;-56
2022/04/07 04:05:20;;;;;;;5.10;4.50;;;;;;;6.29;100.00;95422.94;4997147;28;20479;-60
2022/04/07 04:07:49;;;;;;;8.80;4.30;;;;;;;6.35;100.00;95430.03;5023684;28;20215;-57
2022/04/07 04:10:17;;;;;;;4.33;3.93;;;;;;;6.46;100.00;95428.63;4981178;28;20412;-57
2022/04/07 04:12:45;;;;;;;3.20;3.00;;;;;;;6.56;100.00;95420.31;5021534;28;20235;-58
2022/04/07 04:15:13;;;;;;;3.20;2.90;;;;;;;6.63;100.00;95413.25;5004510;28;20211;-58
2022/04/07 04:17:43;;;;;;;2.63;2.43;;;;;;;6.54;100.00;95405.75;5017755;28;20212;-57
2022/04/07 04:20:12;;;;;;;2.50;2.40;;;;;;;6.64;100.00;95412.25;4996233;28;20969;-59
2022/04/07 04:22:40;;;;;;;2.50;2.40;;;;;;;6.74;100.00;95418.91;5024103;28;20314;-55
2022/04/07 04:25:09;;;;;;;2.57;2.37;;;;;;;6.66;100.00;95419.91;4988889;28;20953;-60
2022/04/07 04:27:38;;;;;;;2.20;2.10;;;;;;;6.63;100.00;95420.34;5028972;28;20284;-58
2022/04/07 04:30:07;;;;;;;2.33;2.23;;;;;;;6.83;100.00;95414.25;5003327;28;20200;-60
2022/04/07 04:32:35;;;;;;;2.10;2.00;;;;;;;6.85;100.00;95418.28;5027228;28;20223;-59
2022/04/07 04:35:08;;;;;;;2.17;2.07;;;;;;;6.85;100.00;95420.94;5003978;28;20210;-59
2022/04/07 04:37:36;;;;;;;2.47;2.33;;;;;;;6.78;100.00;95425.41;4999927;28;20226;-58
2022/04/07 04:40:05;;;;;;;2.40;2.30;;;;;;;6.90;100.00;95422.97;4987632;28;21773;-55
2022/04/07 04:42:33;;;;;;;2.40;2.30;;;;;;;6.80;100.00;95411.00;5025225;28;20227;-56
2022/04/07 04:45:01;;;;;;;2.30;2.20;;;;;;;6.83;100.00;95411.63;5005924;28;20487;-54
2022/04/07 04:47:29;;;;;;;2.17;2.07;;;;;;;6.98;100.00;95421.91;5026863;28;20203;-58
2022/04/07 04:49:57;;;;;;;2.00;1.90;;;;;;;6.91;100.00;95414.84;5003469;28;20231;-58
2022/04/07 04:52:26;;;;;;;2.70;2.50;;;;;;;6.94;100.00;95421.53;4998218;28;20240;-57
2022/04/07 04:54:55;;;;;;;2.07;1.87;;;;;;;7.04;100.00;95407.97;5021931;28;20544;-58
2022/04/07 04:57:23;;;;;;;2.17;2.07;;;;;;;7.13;100.00;95414.63;4974184;28;20476;-60
2022/04/07 04:59:51;;;;;;;2.03;1.93;;;;;;;7.05;100.00;95399.03;5004206;28;20290;-57
2022/04/07 05:02:19;;;;;;;2.17;2.07;;;;;;;7.04;100.00;95418.50;5026220;28;20229;-54
2022/04/07 05:04:49;;;;;;;1.73;1.70;;;;;;;6.88;100.00;95407.34;5001238;28;20199;-55
2022/04/07 05:07:18;;;;;;;1.83;1.83;;;;;;;6.86;100.00;95409.38;5022981;28;20204;-55
2022/04/07 05:09:47;;;;;;;2.27;2.17;;;;;;;6.80;100.00;95405.72;4995838;28;20665;-56
2022/04/07 05:12:15;;;;;;;2.27;2.17;;;;;;;6.97;100.00;95399.25;4968942;28;20503;-59
2022/04/07 05:14:43;;;;;;;1.93;1.87;;;;;;;7.03;100.00;95404.50;5015916;28;20322;-57
2022/04/07 05:17:11;;;;;;;1.80;1.67;;;;;;;7.15;100.00;95402.06;5015839;28;20261;-58
2022/04/07 05:19:44;;;;;;;2.10;2.00;;;;;;;7.09;100.00;95389.72;5018549;28;20790;-56
2022/04/07 05:22:12;;;;;;;2.00;1.90;;;;;;;7.28;100.00;95405.66;5017407;28;20304;-56
2022/04/07 05:24:41;;;;;;;2.00;1.90;;;;;;;7.21;100.00;95395.16;4991838;28;20208;-54
2022/04/07 05:27:10;;;;;;;2.30;2.20;;;;;;;7.32;100.00;95391.88;4973773;28;20291;-55
2022/04/07 05:29:38;;;;;;;2.00;1.90;;;;;;;7.39;100.00;95390.03;5023103;28;20587;-57
2022/04/07 05:32:07;;;;;;;2.07;1.97;;;;;;;7.38;100.00;95398.94;5004880;28;20756;-57
2022/04/07 05:34:35;;;;;;;2.47;2.27;;;;;;;7.46;100.00;95391.81;5026349;28;20329;-56
2022/04/07 05:37:04;;;;;;;1.77;1.67;;;;;;;7.51;100.00;95400.72;5000217;28;20874;-59
2022/04/07 05:39:32;;;;;;;2.27;2.17;;;;;;;7.46;100.00;95389.19;5024921;28;20654;-56
2022/04/07 05:42:00;;;;;;;2.10;1.90;;;;;;;7.54;100.00;95394.22;4948113;28;20991;-58
2022/04/07 05:44:30;;;;;;;3.40;2.00;;;;;;;7.61;100.00;95394.19;5022728;28;20507;-57
2022/04/07 05:46:58;;;;;;;7.53;6.70;;;;;;;7.61;100.00;95383.66;5009911;28;20611;-60
2022/04/07 05:49:26;;;;;;;2.70;2.50;;;;;;;7.68;100.00;95382.63;5022385;28;20218;-59
2022/04/07 05:51:54;;;;;;;2.30;2.20;;;;;;;7.75;100.00;95385.22;5003874;28;20931;-55
2022/04/07 05:54:22;;;;;;;1.97;1.87;;;;;;;7.78;100.00;95384.81;5021628;28;20323;-56
2022/04/07 05:56:50;;;;;;;1.80;1.70;;;;;;;7.76;100.00;95386.81;4998493;28;20310;-55
2022/04/07 05:59:18;;;;;;;1.87;1.80;;;;;;;7.77;100.00;95375.28;4985176;28;20219;-55
2022/04/07 06:01:48;;;;;;;3.43;1.97;;;;;;;7.81;100.00;95367.75;5010415;28;20650;-55
2022/04/07 06:04:17;;;;;;;1.70;1.60;;;;;;;7.88;100.00;95373.00;5023105;28;20261;-55
2022/04/07 06:06:45;;;;;;;1.80;1.80;;;;;;;7.95;100.00;95366.66;5012527;28;20259;-56
2022/04/07 06:09:13;;;;;;;1.50;1.50;;;;;;;8.02;100.00;95361.34;5016447;28;20838;-59
2022/04/07 06:11:41;;;;;;;1.87;1.77;;;;;;;8.10;100.00;95363.72;5002994;28;20241;-56
2022/04/07 06:14:10;;;;;;;1.33;1.33;;;;;;;8.18;100.00;95357.38;4986204;28;21391;-57
2022/04/07 06:16:38;;;;;;;1.83;1.67;;;;;;;8.30;100.00;95354.88;5019897;28;20674;-55
2022/04/07 06:19:07;;;;;;;1.40;1.40;;;;;;;8.47;100.00;95359.59;5013981;28;21025;-58
2022/04/07 06:21:35;;;;;;;1.27;1.27;;;;;;;8.45;100.00;95341.34;5019893;28;20491;-56
2022/04/07 06:24:04;;;;;;;1.30;1.30;;;;;;;8.39;100.00;95348.28;5007750;28;20208;-56
2022/04/07 06:26:32;;;;;;;1.60;1.50;;;;;;;8.41;100.00;95348.09;5007044;28;20224;-56
2022/04/07 06:29:00;;;;;;;1.20;1.20;;;;;;;8.42;100.00;95340.97;4983553;28;21005;-53
2022/04/07 06:31:28;;;;;;;1.10;1.10;;;;;;;8.51;100.00;95337.06;5025360;28;20802;-60
2022/04/07 06:33:59;;;;;;;1.10;1.10;;;;;;;8.91;100.00;95339.34;5008765;28;20360;-56
2022/04/07 06:36:36;;;;;;;1.23;1.13;;;;;;;9.15;100.00;95339.50;5028664;28;20580;-58
2022/04/07 06:39:04;;;;;;;0.93;0.93;;;;;;;9.33;100.00;95341.31;5008524;28;20245;-53
2022/04/07 06:41:33;;;;;;;2.37;1.30;;;;;;;9.77;100.00;95329.78;5007978;28;20238;-57
2022/04/07 06:44:02;;;;;;;1.00;1.00;;;;;;;10.42;100.00;95331.75;4982179;28;20499;-56
2022/04/07 06:46:32;;;;;;;0.83;0.83;;;;;;;10.60;100.00;95327.38;5020815;28;20235;-59
2022/04/07 06:49:00;;;;;;;0.83;0.83;;;;;;;10.65;100.00;95316.88;5007681;28;20430;-55
2022/04/07 06:51:29;;;;;;;1.10;1.10;;;;;;;11.02;100.00;95317.66;5025531;28;20318;-55
2022/04/07 06:53:58;;;;;;;2.83;1.30;;;;;;;11.10;100.00;95317.31;5007148;28;20805;-59
2022/04/07 06:56:26;;;;;;;1.17;0.97;;;;;;;10.53;100.00;95310.78;5025017;28;20210;-58
2022/04/07 06:58:55;;;;;;;2.50;0.80;;;;;;;10.38;100.00;95312.00;5000003;28;20651;-59
2022/04/07 07:01:23;;;;;;;1.03;0.90;;;;;;;10.10;100.00;95308.19;4985949;28;20250;-58
2022/04/07 07:03:51;;;;;;;0.70;0.70;;;;;;;10.34;100.00;95305.53;5006816;28;20214;-56
2022/04/07 07:06:19;;;;;;;1.30;1.30;;;;;;;10.70;100.00;95306.41;5026472;28;20254;-55
2022/04/07 07:08:47;;;;;;;1.13;0.83;;;;;;;10.57;100.00;95302.13;5007734;28;20207;-55
2022/04/07 07:11:16;;;;;;;0.97;0.97;;;;;;;10.51;100.00;95305.72;5024713;28;20314;-55
2022/04/07 07:13:44;;;;;;;1.00;1.00;;;;;;;10.45;100.00;95306.63;5005464;28;20207;-57
2022/04/07 07:16:13;;;;;;;2.63;1.00;;;;;;;10.13;100.00;95305.06;4983032;28;20218;-57
2022/04/07 07:18:42;;;;;;;1.00;1.00;;;;;;;10.09;100.00;95308.38;5020358;28;20203;-58
2022/04/07 07:21:10;;;;;;;1.23;1.07;;;;;;;10.18;100.00;95293.78;5016811;28;20438;-59
2022/04/07 07:23:38;;;;;;;0.77;0.77;;;;;;;10.35;100.00;95299.22;5025347;28;20299;-58
2022/04/07 07:26:06;;;;;;;1.70;0.87;;;;;;;10.39;100.00;95299.56;5011050;28;20430;-56
2022/04/07 07:28:36;;;;;;;0.70;0.70;;;;;;;10.19;100.00;95302.53;5000223;28;20220;-53
2022/04/07 07:31:05;;;;;;;0.80;0.80;;;;;;;10.08;100.00;95304.13;5024929;28;20303;-59
2022/04/07 07:33:33;;;;;;;0.80;0.80;;;;;;;10.04;100.00;95297.69;4985956;28;20584;-59
2022/04/07 07:36:01;;;;;;;0.70;0.70;;;;;;;9.85;100.00;95287.19;5007775;28;20924;-58
2022/04/07 07:38:29;;;;;;;0.73;0.73;;;;;;;10.05;100.00;95289.53;5023342;28;20204;-60
2022/04/07 07:40:57;;;;;;;0.80;0.80;;;;;;;10.20;100.00;95269.75;5006966;28;20200;-60
2022/04/07 07:43:25;;;;;;;1.67;1.57;;;;;;;10.34;100.00;95287.03;5004195;28;20280;-54
2022/04/07 07:45:54;;;;;;;0.90;0.90;;;;;;;10.28;100.00;95277.34;5020218;28;20368;-59
2022/04/07 07:48:27;;;;;;;2.00;1.17;;;;;;;10.32;100.00;95269.78;4984686;28;20324;-57
2022/04/07 07:50:55;;;;;;;1.40;0.87;;;;;;;10.43;100.00;95274.28;5010309;28;20737;-57
2022/04/07 07:53:24;;;;;;;0.87;0.83;;;;;;;10.35;100.00;95274.59;5022652;28;20307;-57
2022/04/07 07:55:53;;;;;;;0.90;0.90;;;;;;;10.46;100.00;95257.16;5004412;28;20204;-56
2022/04/07 07:58:22;;;;;;;0.97;0.87;;;;;;;10.62;100.00;95253.78;5019914;28;20651;-53
2022/04/07 08:00:50;;;;;;;0.93;0.83;;;;;;;11.11;100.00;95252.66;5004828;28;20617;-54
2022/04/07 08:03:19;;;;;;;0.70;0.70;;;;;;;11.39;100.00;95238.63;4984665;28;20228;-55
2022/04/07 08:05:48;;;;;;;0.80;0.80;;;;;;;11.85;100.00;95238.63;5002536;28;20476;-58
2022/04/07 08:08:16;;;;;;;4.07;0.60;;;;;;;12.01;100.00;95220.34;5014885;28;20241;-55
2022/04/07 08:10:44;;;;;;;2.40;0.73;;;;;;;12.10;100.00;95208.28;5000254;28;20751;-53
2022/04/07 08:13:12;;;;;;;1.17;0.80;;;;;;;12.16;100.00;95217.13;5018509;28;20235;-58
2022/04/07 08:15:40;;;;;;;1.57;0.97;;;;;;;12.07;100.00;95210.59;5002801;28;20204;-57
2022/04/07 08:18:09;;;;;;;2.77;0.60;;;;;;;11.85;100.00;95214.75;4997327;28;20214;-56
2022/04/07 08:20:39;;;;;;;6.37;2.70;;;;;;;11.86;100.00;95226.97;5014950;28;20270;-58
2022/04/07 08:23:07;;;;;;;1.27;0.93;;;;;;;11.77;100.00;95212.50;5011207;28;20232;-56
2022/04/07 08:25:35;;;;;;;0.60;0.60;;;;;;;11.78;100.00;95218.63;5022593;28;20211;-58
2022/04/07 08:28:03;;;;;;;1.03;0.47;;;;;;;12.23;100.00;95214.28;5007416;28;20315;-57
2022/04/07 08:30:34;;;;;;;0.70;0.70;;;;;;;11.66;100.00;95213.38;5000782;28;20303;-59
2022/04/07 08:33:03;;;;;;;0.90;0.90;;;;;;;11.86;100.00;95205.75;5019039;28;20220;-55
2022/04/07 08:35:32;;;;;;;0.70;0.70;;;;;;;12.28;100.00;95199.25;4987016;28;20219;-58
2022/04/07 08:38:01;;;;;;;1.13;0.80;;;;;;;12.51;100.00;95193.97;5009311;28;20224;-56
2022/04/07 08:40:30;;;;;;;3.03;1.00;;;;;;;12.61;100.00;95207.38;5020101;28;20216;-58
2022/04/07 08:42:58;;;;;;;0.73;0.73;;;;;;;12.65;100.00;95192.56;5005509;28;20718;-59
2022/04/07 08:45:26;;;;;;;1.90;0.70;;;;;;;12.75;100.00;95194.56;5002184;28;21699;-59
2022/04/07 08:47:56;;;;;;;0.90;0.73;;;;;;;12.91;100.00;95190.22;5025774;28;20291;-59
2022/04/07 08:50:24;;;;;;;0.70;0.70;;;;;;;12.70;93.91;95192.66;4985994;28;20740;-57
2022/04/07 08:52:54;;;;;;;1.27;0.87;;;;;;;12.33;87.97;95179.94;5008420;28;20238;-58
2022/04/07 08:55:23;;;;;;;2.00;0.97;;;;;;;12.16;100.00;95187.94;5016787;28;20211;-58
2022/04/07 08:57:52;;;;;;;1.03;0.80;;;;;;;12.37;99.39;95182.91;5010525;28;20702;-60
2022/04/07 09:00:20;;;;;;;0.70;0.60;;;;;;;12.65;100.00;95184.59;5022631;28;20400;-57
2022/04/07 09:02:48;;;;;;;0.80;0.70;;;;;;;12.59;91.93;95188.22;5008056;28;20638;-54
2022/04/07 09:05:17;;;;;;;2.50;0.70;;;;;;;13.02;87.88;95168.03;4980542;28;20320;-55
2022/04/07 09:07:47;;;;;;;1.67;1.57;;;;;;;12.89;100.00;95176.38;5022348;28;20387;-59
2022/04/07 09:10:19;;;;;;;0.80;0.80;;;;;;;12.92;96.07;95172.44;5005411;28;20680;-54
2022/04/07 09:12:49;;;;;;;0.50;0.50;;;;;;;13.05;92.88;95157.94;5024247;28;20234;-56
2022/04/07 09:15:17;;;;;;;0.70;0.70;;;;;;;13.44;87.94;95163.16;5005842;28;20204;-56
2022/04/07 09:17:53;;;;;;;2.17;0.70;;;;;;;13.38;89.44;95166.78;4998889;28;20211;-59
2022/04/07 09:20:21;;;;;;;1.60;1.00;;;;;;;13.35;87.10;95164.63;5017935;28;20238;-58
2022/04/07 09:22:57;;;;;;;0.93;0.93;;;;;;;13.41;88.23;95164.44;4987250;28;20250;-56
2022/04/07 09:25:25;;;;;;;1.77;0.53;;;;;;;13.69;90.66;95157.28;5006923;28;20301;-59
2022/04/07 09:27:57;;;;;;;0.60;0.60;;;;;;;13.76;75.26;95157.03;5024621;28;20246;-60
2022/04/07 09:30:26;;;;;;;0.70;0.70;;;;;;;13.66;76.54;95147.13;5006708;28;20505;-58
2022/04/07 09:32:54;;;;;;;1.40;0.70;;;;;;;13.02;83.37;95138.00;5021318;28;20701;-59
2022/04/07 09:35:22;;;;;;;0.87;0.87;;;;;;;13.01;88.47;95129.19;5001117;28;20417;-58
2022/04/07 09:37:50;;;;;;;0.80;0.80;;;;;;;13.18;87.09;95130.97;4985092;28;20215;-58
2022/04/07 09:40:19;;;;;;;0.57;0.57;;;;;;;12.77;87.66;95114.59;5007949;28;20723;-53
2022/04/07 09:42:59;;;;;;;1.10;1.10;;;;;;;12.41;94.29;95123.75;5022482;28;20706;-60
2022/04/07 09:45:27;;;;;;;0.60;0.60;;;;;;;12.33;98.08;95132.16;5011678;28;20528;-59
2022/04/07 09:47:55;;;;;;;0.70;0.70;;;;;;;12.18;100.00;95114.16;5023087;28;20223;-58
2022/04/07 09:50:28;;;;;;;0.50;0.50;;;;;;;12.35;100.00;95108.81;4997953;28;20337;-55
2022/04/07 09:52:58;;;;;;;1.30;0.60;;;;;;;12.37;100.00;95101.38;4982234;28;20512;-54
2022/04/07 09:55:29;;;;;;;0.70;0.70;;;;;;;12.41;100.00;95097.19;5002868;28;20218;-56
2022/04/07 09:57:59;;;;;;;1.03;0.60;;;;;;;12.40;97.57;95084.16;5022823;28;20218;-53
2022/04/07 10:00:27;;;;;;;1.03;0.70;;;;;;;12.43;92.44;95073.03;5000387;28;20211;-56
2022/04/07 10:02:56;;;;;;;1.13;1.00;;;;;;;12.26;94.65;95081.88;5021635;28;20238;-60
2022/04/07 10:05:25;;;;;;;0.67;0.67;;;;;;;12.27;95.89;95058.75;4996596;28;20402;-61
2022/04/07 10:07:53;;;;;;;4.60;4.03;;;;;;;12.42;99.92;95066.09;4985490;28;20254;-59
2022/04/07 10:10:21;;;;;;;1.60;0.90;;;;;;;12.44;93.19;95062.16;5004644;28;20320;-55
2022/04/07 10:12:51;;;;;;;0.70;0.70;;;;;;;12.34;91.60;95056.75;5025481;28;21596;-57
2022/04/07 10:15:21;;;;;;;0.60;0.60;;;;;;;12.43;94.79;95049.94;4999183;28;20294;-58
2022/04/07 10:17:49;;;;;;;2.53;1.70;;;;;;;12.38;88.04;95031.28;5023798;28;20304;-56
2022/04/07 10:20:28;;;;;;;0.60;0.60;;;;;;;12.36;88.17;95030.75;5001704;28;20496;-56
2022/04/07 10:23:05;;;;;;;0.67;0.63;;;;;;;12.64;90.25;95036.88;5020292;28;20229;-59
2022/04/07 10:25:34;;;;;;;0.63;0.63;;;;;;;12.96;81.14;95038.00;4991132;28;20215;-53
2022/04/07 10:28:05;;;;;;;0.70;0.70;;;;;;;13.03;85.55;95030.59;5019642;28;20755;-55
2022/04/07 10:30:46;;;;;;;0.60;0.60;;;;;;;13.40;81.15;95018.38;5006171;28;22707;-54
2022/04/07 10:33:33;;;;;;;0.57;0.57;;;;;;;13.37;81.32;95016.25;5019291;28;20811;-56
2022/04/07 10:36:07;;;;;;;0.57;0.57;;;;;;;13.20;77.56;95013.72;5020383;28;20522;-56
2022/04/07 10:38:39;;;;;;;0.50;0.50;;;;;;;12.90;84.56;94999.13;5012367;28;20218;-59
2022/04/07 10:41:08;;;;;;;2.63;1.03;;;;;;;12.76;89.63;95006.72;4963337;28;20639;-57
2022/04/07 10:43:39;;;;;;;3.93;0.87;;;;;;;12.95;88.49;94993.88;5019444;28;20916;-61
2022/04/07 10:46:14;;;;;;;0.43;0.43;;;;;;;12.80;80.77;94967.94;5004531;28;20212;-56
2022/04/07 10:48:46;;;;;;;3.43;3.10;;;;;;;12.92;84.34;94989.06;5023016;28;20223;-61
2022/04/07 10:51:15;;;;;;;0.60;0.60;;;;;;;13.01;86.67;94980.34;5001502;28;20315;-58
2022/04/07 10:54:03;;;;;;;1.30;0.97;;;;;;;12.81;84.53;94969.56;5023797;28;20205;-60
2022/04/07 10:56:34;;;;;;;0.50;0.50;;;;;;;12.61;85.02;94978.94;4971316;28;20211;-52
2022/04/07 10:59:21;;;;;;;1.60;1.40;;;;;;;12.49;85.46;94978.28;5022218;28;20628;-57
2022/04/07 11:02:01;;;;;;;0.97;0.90;;;;;;;12.29;95.80;94975.16;5009567;28;20274;-59
2022/04/07 11:04:44;;;;;;;0.80;0.80;;;;;;;12.52;87.82;94970.63;5028967;28;20247;-59
2022/04/07 11:07:16;;;;;;;0.87;0.53;;;;;;;12.56;84.70;94966.41;5007894;28;20313;-56
2022/04/07 11:10:10;;;;;;;1.90;0.87;;;;;;;12.58;87.48;94964.31;5025094;28;20711;-59
2022/04/07 11:12:43;;;;;;;0.60;0.60;;;;;;;12.63;86.90;94960.09;5002110;28;20255;-59
2022/04/07 11:15:46;;;;;;;1.07;0.97;;;;;;;12.51;93.94;94958.41;5012218;28;20699;-59
2022/04/07 11:18:48;;;;;;;0.60;0.60;;;;;;;12.50;91.67;94948.84;5023304;28;20299;-56
2022/04/07 11:21:16;;;;;;;0.57;0.57;;;;;;;12.70;91.62;94921.66;5019066;28;20329;-59
2022/04/07 11:23:52;;;;;;;2.27;0.77;;;;;;;12.88;92.88;94914.34;5007959;28;20653;-54
2022/04/07 11:26:23;;;;;;;1.40;0.93;;;;;;;12.97;88.85;94912.00;4986065;28;20938;-54
2022/04/07 11:29:06;;;;;;;0.53;0.53;;;;;;;12.96;83.95;94902.44;5005500;28;20784;-56
2022/04/07 11:31:43;;;;;;;0.40;0.40;;;;;;;12.84;83.19;94899.97;5011195;28;21213;-58
2022/04/07 11:34:53;;;;;;;0.57;0.57;;;;;;;12.70;94.17;94904.88;5018380;28;20531;-59
2022/04/07 11:37:21;;;;;;;0.70;0.70;;;;;;;12.72;86.54;94878.88;5021685;28;20247;-59
2022/04/07 11:39:51;;;;;;;0.50;0.50;;;;;;;12.63;84.73;94905.09;5007630;28;20208;-55
2022/04/07 11:42:22;;;;;;;0.77;0.77;;;;;;;12.62;90.49;94890.22;4982688;28;20240;-59
2022/04/07 11:44:57;;;;;;;0.70;0.70;;;;;;;12.60;90.66;94900.28;5009212;28;20222;-57
2022/04/07 11:47:28;;;;;;;0.50;0.50;;;;;;;12.87;88.48;94886.94;5010146;28;20315;-57